Time;durP1;ratioP1;P1;durP2;ratioP2;P2;SDS_P1;SDS_P2;PMS_P1;PMS_P2;Temp;Humidity;BMP_temperature;BMP_pressure;BME280_temperature;BME280_humidity;BME280_pressure;Samples;Min_cycle;Max_cycle;Signal;HPM_P1;HPM_P2
2022/06/13 00:00:59;;;;;;;13.07;4.32;;;;;;;;;;5064744;28;20382;-60
2022/06/13 00:03:26;;;;;;;17.20;4.20;;;;;;;;;;5064629;28;20524;-60
2022/06/13 00:05:52;;;;;;;10.73;4.13;;;;;;;;;;5064977;28;20055;-60
2022/06/13 00:08:18;;;;;;;18.20;3.97;;;;;;;;;;5065320;28;20049;-60
2022/06/13 00:10:44;;;;;;;8.80;3.80;;;;;;;;;;5065796;28;20036;-60
2022/06/13 00:13:11;;;;;;;12.00;3.95;;;;;;;;;;5064699;28;20081;-60
2022/06/13 00:15:37;;;;;;;13.82;3.67;;;;;;;;;;5064158;28;20658;-60
2022/06/13 00:18:03;;;;;;;13.43;3.80;;;;;;;;;;5065270;28;20510;-60
2022/06/13 00:20:29;;;;;;;13.90;3.67;;;;;;;;;;5064478;28;20111;-61
2022/06/13 00:22:55;;;;;;;10.45;3.38;;;;;;;;;;5064728;28;20119;-60
2022/06/13 00:25:22;;;;;;;9.85;3.42;;;;;;;;;;5064820;28;20478;-60
2022/06/13 00:27:48;;;;;;;6.47;3.22;;;;;;;;;;5063771;28;20392;-60
2022/06/13 00:30:14;;;;;;;10.88;3.80;;;;;;;;;;5064139;28;20036;-60
2022/06/13 00:32:40;;;;;;;12.02;3.67;;;;;;;;;;5064369;28;20076;-60
2022/06/13 00:35:07;;;;;;;12.93;4.30;;;;;;;;;;5064083;28;20128;-60
2022/06/13 00:37:33;;;;;;;13.15;3.92;;;;;;;;;;5064282;28;20051;-60
2022/06/13 00:39:59;;;;;;;17.02;4.50;;;;;;;;;;5064574;28;20059;-60
2022/06/13 00:42:26;;;;;;;11.50;3.83;;;;;;;;;;5059653;28;20521;-60
2022/06/13 00:45:05;;;;;;;16.25;4.03;;;;;;;;;;5063393;28;20094;-60
2022/06/13 00:47:31;;;;;;;15.13;4.43;;;;;;;;;;5064623;28;20048;-60
2022/06/13 00:49:59;;;;;;;16.42;4.05;;;;;;;;;;5064463;28;20056;-60
2022/06/13 00:52:34;;;;;;;15.13;4.20;;;;;;;;;;5062297;28;20536;-60
2022/06/13 00:55:00;;;;;;;11.40;3.47;;;;;;;;;;5064238;28;20643;-60
2022/06/13 00:57:27;;;;;;;10.27;3.30;;;;;;;;;;5064423;28;20767;-60
2022/06/13 00:59:56;;;;;;;14.38;4.07;;;;;;;;;;5062872;28;20781;-60
2022/06/13 01:02:22;;;;;;;10.75;4.28;;;;;;;;;;5063745;28;20044;-60
2022/06/13 01:04:50;;;;;;;9.95;3.50;;;;;;;;;;5064261;28;20510;-60
2022/06/13 01:07:17;;;;;;;14.30;4.30;;;;;;;;;;5060954;28;20398;-57
2022/06/13 01:12:30;;;;;;;11.15;3.95;;;;;;;;;;5061223;28;20125;-60
2022/06/13 01:15:05;;;;;;;12.55;3.72;;;;;;;;;;5063000;28;20444;-60
2022/06/13 01:17:31;;;;;;;15.95;3.92;;;;;;;;;;5060471;28;20032;-60
2022/06/13 01:19:58;;;;;;;11.15;3.58;;;;;;;;;;5063197;28;20054;-60
2022/06/13 01:22:27;;;;;;;11.18;3.90;;;;;;;;;;5063740;28;20062;-60
2022/06/13 01:24:55;;;;;;;12.50;4.05;;;;;;;;;;5064126;28;20051;-60
2022/06/13 01:27:29;;;;;;;12.38;4.00;;;;;;;;;;5063884;28;20409;-60
2022/06/13 01:30:23;;;;;;;11.95;3.83;;;;;;;;;;5063303;28;20037;-60
2022/06/13 01:32:54;;;;;;;17.42;4.05;;;;;;;;;;5061928;28;20607;-60
2022/06/13 01:35:20;;;;;;;12.00;3.78;;;;;;;;;;5063654;28;20402;-60
2022/06/13 01:37:55;;;;;;;13.40;4.00;;;;;;;;;;5063644;28;20040;-55
2022/06/13 01:40:22;;;;;;;10.63;4.38;;;;;;;;;;5063768;28;20036;-60
2022/06/13 01:42:57;;;;;;;16.38;4.25;;;;;;;;;;5061218;28;20043;-60
2022/06/13 01:45:41;;;;;;;14.70;4.13;;;;;;;;;;5063101;28;20112;-60
2022/06/13 01:48:10;;;;;;;9.82;4.00;;;;;;;;;;5063732;28;20052;-60
2022/06/13 01:50:39;;;;;;;10.93;4.05;;;;;;;;;;5062397;28;20842;-60
2022/06/13 01:53:15;;;;;;;13.07;4.63;;;;;;;;;;5063505;28;20541;-60
2022/06/13 01:55:45;;;;;;;13.88;4.22;;;;;;;;;;5063497;28;20040;-60
2022/06/13 01:58:16;;;;;;;10.40;4.60;;;;;;;;;;5063365;28;20116;-60
2022/06/13 02:00:46;;;;;;;9.45;3.92;;;;;;;;;;5063619;28;20036;-60
2022/06/13 02:03:31;;;;;;;15.48;4.50;;;;;;;;;;5063772;28;20079;-60
2022/06/13 02:06:08;;;;;;;16.45;4.82;;;;;;;;;;5063182;28;20398;-61
2022/06/13 02:08:38;;;;;;;11.38;4.47;;;;;;;;;;5062697;28;20065;-60
2022/06/13 02:11:11;;;;;;;18.33;5.30;;;;;;;;;;5063232;28;20037;-60
2022/06/13 02:13:41;;;;;;;15.07;4.82;;;;;;;;;;5063279;28;20756;-60
2022/06/13 02:16:12;;;;;;;15.50;4.90;;;;;;;;;;5062560;28;20102;-60
2022/06/13 02:18:51;;;;;;;13.43;5.15;;;;;;;;;;5062802;28;20120;-60
2022/06/13 02:21:17;;;;;;;20.83;5.68;;;;;;;;;;5063417;28;20079;-57
2022/06/13 02:23:48;;;;;;;19.58;5.05;;;;;;;;;;5063614;28;20049;-60
2022/06/13 02:26:18;;;;;;;13.60;4.88;;;;;;;;;;5063890;28;20127;-60
2022/06/13 02:28:46;;;;;;;12.95;4.68;;;;;;;;;;5063614;28;20037;-60
2022/06/13 02:31:21;;;;;;;16.38;5.90;;;;;;;;;;5062520;28;20036;-60
2022/06/13 02:33:58;;;;;;;13.18;5.18;;;;;;;;;;5062878;28;20043;-60
2022/06/13 02:36:30;;;;;;;11.80;5.35;;;;;;;;;;5062653;28;20064;-61
2022/06/13 02:38:56;;;;;;;13.00;4.53;;;;;;;;;;5063158;28;20048;-60
2022/06/13 02:41:24;;;;;;;14.75;5.70;;;;;;;;;;5062719;28;20041;-60
2022/06/13 02:43:55;;;;;;;15.40;5.28;;;;;;;;;;5059922;28;20045;-60
2022/06/13 02:46:27;;;;;;;17.60;5.38;;;;;;;;;;5066414;28;20047;-60
2022/06/13 02:48:57;;;;;;;16.25;5.68;;;;;;;;;;5066176;28;20115;-60
2022/06/13 02:51:28;;;;;;;12.80;5.85;;;;;;;;;;5066290;28;20044;-60
2022/06/13 02:53:59;;;;;;;17.63;5.35;;;;;;;;;;5066398;28;20448;-60
2022/06/13 02:56:35;;;;;;;15.25;4.97;;;;;;;;;;5065476;28;20450;-60
2022/06/13 02:59:17;;;;;;;15.25;5.47;;;;;;;;;;5065946;28;21174;-60
2022/06/13 03:01:46;;;;;;;17.13;5.43;;;;;;;;;;5066643;28;20068;-60
2022/06/13 03:04:30;;;;;;;10.88;4.90;;;;;;;;;;5066477;28;20517;-60
2022/06/13 03:06:58;;;;;;;15.68;5.68;;;;;;;;;;5065493;28;20048;-59
2022/06/13 03:09:28;;;;;;;13.85;5.72;;;;;;;;;;5066280;28;20135;-61
2022/06/13 03:11:54;;;;;;;18.88;6.28;;;;;;;;;;5065929;28;20041;-60
2022/06/13 03:14:37;;;;;;;16.38;6.32;;;;;;;;;;5065654;28;20044;-60
2022/06/13 03:17:05;;;;;;;14.25;5.85;;;;;;;;;;5065786;28;20044;-60
2022/06/13 03:19:35;;;;;;;15.55;6.15;;;;;;;;;;5066076;28;20052;-60
2022/06/13 03:22:11;;;;;;;14.02;6.10;;;;;;;;;;5066330;28;20606;-60
2022/06/13 03:24:42;;;;;;;21.48;6.25;;;;;;;;;;5066265;28;20677;-59
2022/06/13 03:27:12;;;;;;;18.75;5.93;;;;;;;;;;5065846;28;20048;-60
2022/06/13 03:29:53;;;;;;;16.50;6.25;;;;;;;;;;5064996;28;20115;-60
2022/06/13 03:32:23;;;;;;;18.00;5.97;;;;;;;;;;5065645;28;20063;-61
2022/06/13 03:34:51;;;;;;;21.58;6.32;;;;;;;;;;5065560;28;20036;-60
2022/06/13 03:37:20;;;;;;;14.77;6.30;;;;;;;;;;5065253;28;20430;-60
2022/06/13 03:39:49;;;;;;;19.30;5.80;;;;;;;;;;5065999;28;20098;-60
2022/06/13 03:42:26;;;;;;;16.23;5.95;;;;;;;;;;5065919;28;20600;-59
2022/06/13 03:44:56;;;;;;;17.88;5.70;;;;;;;;;;5062273;28;20079;-60
2022/06/13 03:47:26;;;;;;;13.07;5.45;;;;;;;;;;5065560;28;20676;-60
2022/06/13 03:50:11;;;;;;;13.57;6.03;;;;;;;;;;5065535;28;20051;-60
2022/06/13 03:52:39;;;;;;;15.18;5.60;;;;;;;;;;5065176;28;20528;-60
2022/06/13 03:55:10;;;;;;;13.23;5.45;;;;;;;;;;5059137;28;20041;-60
2022/06/13 03:57:41;;;;;;;17.55;6.20;;;;;;;;;;5065504;28;20052;-60
2022/06/13 04:00:10;;;;;;;16.02;5.40;;;;;;;;;;5063787;28;20049;-60
2022/06/13 04:02:37;;;;;;;16.77;4.65;;;;;;;;;;5065078;28;20040;-60
2022/06/13 04:05:04;;;;;;;15.20;4.60;;;;;;;;;;5064791;28;20044;-60
2022/06/13 04:07:32;;;;;;;9.25;3.70;;;;;;;;;;5065437;28;20063;-59
2022/06/13 04:10:00;;;;;;;16.38;5.00;;;;;;;;;;5064664;28;20057;-60
2022/06/13 04:12:27;;;;;;;20.15;4.82;;;;;;;;;;5065008;28;20075;-60
2022/06/13 04:14:55;;;;;;;13.25;4.13;;;;;;;;;;5064198;28;20090;-60
2022/06/13 04:17:22;;;;;;;12.20;4.20;;;;;;;;;;5065159;28;20048;-60
2022/06/13 04:19:59;;;;;;;11.40;4.45;;;;;;;;;;5063589;28;20153;-59
2022/06/13 04:22:39;;;;;;;13.77;3.85;;;;;;;;;;5064699;28;20084;-60
2022/06/13 04:25:06;;;;;;;16.33;4.75;;;;;;;;;;5064653;28;20127;-60
2022/06/13 04:27:38;;;;;;;12.80;3.83;;;;;;;;;;5064720;28;20037;-60
2022/06/13 04:30:09;;;;;;;14.50;3.97;;;;;;;;;;5063953;28;20500;-60
2022/06/13 04:32:41;;;;;;;12.55;3.60;;;;;;;;;;5064654;28;20051;-60
2022/06/13 04:35:07;;;;;;;13.85;3.45;;;;;;;;;;5064101;28;20052;-60
2022/06/13 04:37:34;;;;;;;9.95;3.58;;;;;;;;;;5064442;28;20047;-60
2022/06/13 04:40:02;;;;;;;10.75;4.20;;;;;;;;;;5064475;28;20127;-60
2022/06/13 04:42:32;;;;;;;13.02;3.45;;;;;;;;;;5064017;28;20589;-60
2022/06/13 04:45:01;;;;;;;8.45;2.90;;;;;;;;;;5062583;28;20401;-60
2022/06/13 04:47:27;;;;;;;12.05;3.22;;;;;;;;;;5061284;28;20129;-60
2022/06/13 04:49:55;;;;;;;11.27;3.50;;;;;;;;;;5062795;28;20048;-60
2022/06/13 04:52:25;;;;;;;14.73;2.78;;;;;;;;;;5063453;28;20131;-60
2022/06/13 04:54:55;;;;;;;10.82;2.78;;;;;;;;;;5064464;28;20041;-60
2022/06/13 04:57:22;;;;;;;7.10;2.80;;;;;;;;;;5064326;28;20048;-60
2022/06/13 04:59:48;;;;;;;9.43;3.05;;;;;;;;;;5063561;28;20032;-60
2022/06/13 05:02:16;;;;;;;10.23;2.70;;;;;;;;;;5064425;28;20050;-60
2022/06/13 05:04:43;;;;;;;9.63;2.63;;;;;;;;;;5064700;28;20040;-60
2022/06/13 05:07:21;;;;;;;6.82;2.30;;;;;;;;;;5062050;28;20041;-61
2022/06/13 05:09:51;;;;;;;9.25;2.35;;;;;;;;;;5060870;28;20490;-61
2022/06/13 05:12:25;;;;;;;8.88;2.65;;;;;;;;;;5062925;28;20041;-61
2022/06/13 05:14:57;;;;;;;7.60;2.28;;;;;;;;;;5061902;28;20393;-61
2022/06/13 05:17:34;;;;;;;9.07;2.08;;;;;;;;;;5062755;28;20084;-62
2022/06/13 05:20:04;;;;;;;7.60;2.45;;;;;;;;;;5061715;28;20044;-61
2022/06/13 05:22:45;;;;;;;6.95;2.40;;;;;;;;;;5061475;28;20036;-61
2022/06/13 05:25:30;;;;;;;10.77;2.30;;;;;;;;;;5057577;28;20219;-59
2022/06/13 05:27:56;;;;;;;12.25;2.20;;;;;;;;;;5063580;28;20044;-59
2022/06/13 05:30:23;;;;;;;12.13;2.72;;;;;;;;;;5062809;28;20131;-59
2022/06/13 05:32:49;;;;;;;7.75;2.42;;;;;;;;;;5063410;28;20485;-60
2022/06/13 05:35:18;;;;;;;8.43;2.40;;;;;;;;;;5056509;28;20121;-59
2022/06/13 05:37:44;;;;;;;10.57;2.40;;;;;;;;;;5051961;28;20170;-59
2022/06/13 05:40:17;;;;;;;11.05;2.58;;;;;;;;;;5063899;28;20044;-59
2022/06/13 05:42:44;;;;;;;10.07;2.47;;;;;;;;;;5055567;28;20478;-60
2022/06/13 05:45:12;;;;;;;14.00;2.65;;;;;;;;;;5058738;28;20047;-60
2022/06/13 05:47:40;;;;;;;7.68;2.28;;;;;;;;;;5055626;28;20052;-59
2022/06/13 05:50:06;;;;;;;14.68;2.78;;;;;;;;;;5057814;28;20044;-59
2022/06/13 05:52:32;;;;;;;10.48;2.28;;;;;;;;;;5062005;28;20186;-60
2022/06/13 05:54:58;;;;;;;6.13;1.90;;;;;;;;;;5063158;28;20076;-60
2022/06/13 05:57:25;;;;;;;7.55;2.03;;;;;;;;;;5062489;28;20036;-60
2022/06/13 05:59:51;;;;;;;6.60;2.13;;;;;;;;;;5062464;28;20039;-60
2022/06/13 06:02:17;;;;;;;12.35;3.35;;;;;;;;;;5062337;28;20079;-60
2022/06/13 06:04:43;;;;;;;8.25;2.72;;;;;;;;;;5064487;28;20148;-61
2022/06/13 06:07:10;;;;;;;8.48;2.10;;;;;;;;;;5063996;28;20119;-60
2022/06/13 06:09:36;;;;;;;9.10;2.58;;;;;;;;;;5062938;28;20425;-61
2022/06/13 06:12:03;;;;;;;10.80;2.28;;;;;;;;;;5063564;28;20154;-59
2022/06/13 06:14:29;;;;;;;8.35;1.92;;;;;;;;;;5062622;28;20076;-60
2022/06/13 06:16:55;;;;;;;10.52;2.35;;;;;;;;;;5062010;28;20045;-60
2022/06/13 06:19:22;;;;;;;6.70;1.30;;;;;;;;;;5066343;28;20044;-60
2022/06/13 06:21:48;;;;;;;6.47;1.40;;;;;;;;;;5067642;28;20052;-60
2022/06/13 06:24:14;;;;;;;4.90;1.65;;;;;;;;;;5067394;28;20052;-60
2022/06/13 06:26:41;;;;;;;6.85;1.67;;;;;;;;;;5067090;28;20627;-59
2022/06/13 06:29:07;;;;;;;7.13;1.58;;;;;;;;;;5066829;28;20386;-60
2022/06/13 06:31:33;;;;;;;9.38;1.73;;;;;;;;;;5067561;28;20201;-60
2022/06/13 06:33:59;;;;;;;6.00;1.50;;;;;;;;;;5067053;28;20051;-59
2022/06/13 06:36:25;;;;;;;4.55;1.15;;;;;;;;;;5067059;28;20112;-60
2022/06/13 06:38:51;;;;;;;5.90;1.50;;;;;;;;;;5065516;28;20083;-60
2022/06/13 06:41:17;;;;;;;7.20;1.42;;;;;;;;;;5067032;28;20036;-60
2022/06/13 06:43:43;;;;;;;7.78;1.73;;;;;;;;;;5067218;28;20040;-60
2022/06/13 06:46:10;;;;;;;5.38;1.30;;;;;;;;;;5067043;28;20044;-60
2022/06/13 06:48:36;;;;;;;4.93;1.30;;;;;;;;;;5067089;28;20601;-60
2022/06/13 06:51:05;;;;;;;4.88;1.00;;;;;;;;;;5067148;28;20044;-59
2022/06/13 06:59:53;;;;;;;5.22;1.27;;;;;;;;;;5066476;28;20048;-60
2022/06/13 07:01:47;;;;;;;2.30;0.40;;;;;;;;;;5066822;28;20198;-61
2022/06/13 07:04:13;;;;;;;2.00;0.38;;;;;;;;;;5066983;28;20044;-60
2022/06/13 07:06:40;;;;;;;3.08;0.20;;;;;;;;;;5067093;28;20072;-60
2022/06/13 07:09:07;;;;;;;1.38;0.20;;;;;;;;;;5066773;28;20053;-60
2022/06/13 07:14:19;;;;;;;2.15;0.50;;;;;;;;;;5065730;28;20048;-60
2022/06/13 07:16:45;;;;;;;1.63;0.30;;;;;;;;;;5066836;28;20482;-60
2022/06/13 07:19:11;;;;;;;1.63;0.40;;;;;;;;;;5066794;28;20486;-60
2022/06/13 07:21:37;;;;;;;1.58;0.30;;;;;;;;;;5066083;28;20490;-60
2022/06/13 07:24:03;;;;;;;2.40;0.57;;;;;;;;;;5066548;28;20389;-60
2022/06/13 07:26:31;;;;;;;2.25;0.50;;;;;;;;;;5066443;28;20048;-60
2022/06/13 07:28:57;;;;;;;4.20;0.55;;;;;;;;;;5065390;28;20048;-60
2022/06/13 07:31:26;;;;;;;4.22;0.70;;;;;;;;;;5065463;28;20045;-60
2022/06/13 07:33:53;;;;;;;2.80;0.60;;;;;;;;;;5066190;28;20055;-60
2022/06/13 07:36:19;;;;;;;4.40;0.70;;;;;;;;;;5065667;28;20040;-60
2022/06/13 07:38:46;;;;;;;5.55;0.80;;;;;;;;;;5066655;28;20051;-60
2022/06/13 07:41:16;;;;;;;3.72;1.00;;;;;;;;;;5066363;28;20040;-60
2022/06/13 07:43:43;;;;;;;4.15;0.70;;;;;;;;;;5065605;28;20045;-60
2022/06/13 07:46:10;;;;;;;4.85;1.40;;;;;;;;;;5066173;28;20087;-60
2022/06/13 07:48:36;;;;;;;5.53;1.30;;;;;;;;;;5065113;28;20072;-60
2022/06/13 07:51:05;;;;;;;9.13;1.05;;;;;;;;;;5065715;28;20627;-60
2022/06/13 07:53:32;;;;;;;7.40;1.13;;;;;;;;;;5064279;28;20045;-60
2022/06/13 07:55:58;;;;;;;10.35;1.20;;;;;;;;;;5065974;28;20084;-60
2022/06/13 07:58:29;;;;;;;4.90;1.27;;;;;;;;;;5064885;28;20098;-60
2022/06/13 08:00:55;;;;;;;5.93;1.50;;;;;;;;;;5065644;28;20040;-60
2022/06/13 08:03:25;;;;;;;7.07;1.20;;;;;;;;;;5064757;28;20060;-59
2022/06/13 08:05:52;;;;;;;6.18;0.98;;;;;;;;;;5066006;28;20322;-60
2022/06/13 08:08:18;;;;;;;5.35;1.02;;;;;;;;;;5065074;28;20052;-60
2022/06/13 08:10:45;;;;;;;4.72;0.90;;;;;;;;;;5065917;28;20041;-59
2022/06/13 08:13:13;;;;;;;4.57;0.77;;;;;;;;;;5064603;28;20513;-60
2022/06/13 08:15:39;;;;;;;4.78;1.15;;;;;;;;;;5065160;28;20036;-60
2022/06/13 08:18:06;;;;;;;4.43;0.80;;;;;;;;;;5065279;28;20513;-60
2022/06/13 08:20:33;;;;;;;7.90;1.20;;;;;;;;;;5065171;28;20036;-60
2022/06/13 08:23:00;;;;;;;8.35;1.02;;;;;;;;;;5065239;28;20045;-60
2022/06/13 08:25:28;;;;;;;4.93;0.95;;;;;;;;;;5065207;28;20482;-59
2022/06/13 08:27:55;;;;;;;4.00;1.58;;;;;;;;;;5064915;28;20098;-60
2022/06/13 08:30:21;;;;;;;5.10;0.80;;;;;;;;;;5064370;28;20552;-60
2022/06/13 08:32:47;;;;;;;8.50;0.75;;;;;;;;;;5065020;28;20047;-60
2022/06/13 08:35:14;;;;;;;3.38;0.80;;;;;;;;;;5064836;28;20390;-59
2022/06/13 08:37:40;;;;;;;6.32;1.35;;;;;;;;;;5065060;28;20072;-60
2022/06/13 08:40:07;;;;;;;4.93;0.80;;;;;;;;;;5065089;28;20040;-60
2022/06/13 08:42:36;;;;;;;3.67;0.90;;;;;;;;;;5064483;28;20536;-60
2022/06/13 08:45:07;;;;;;;9.50;0.77;;;;;;;;;;5062593;28;20055;-60
2022/06/13 08:47:43;;;;;;;5.25;0.90;;;;;;;;;;5064608;28;20057;-60
2022/06/13 08:50:16;;;;;;;3.80;0.70;;;;;;;;;;5065012;28;20494;-59
2022/06/13 08:52:49;;;;;;;3.85;0.60;;;;;;;;;;5063365;28;20048;-60
2022/06/13 08:55:20;;;;;;;2.40;0.40;;;;;;;;;;5065028;28;20067;-60
2022/06/13 08:57:49;;;;;;;6.60;0.75;;;;;;;;;;5064256;28;20041;-59
2022/06/13 09:00:19;;;;;;;6.75;0.93;;;;;;;;;;5065094;28;20091;-60
2022/06/13 09:02:46;;;;;;;2.95;0.50;;;;;;;;;;5064779;28;20044;-60
2022/06/13 09:05:17;;;;;;;3.67;0.60;;;;;;;;;;5064249;28;20067;-60
2022/06/13 09:07:46;;;;;;;5.13;0.50;;;;;;;;;;5064700;28;20052;-59
2022/06/13 09:10:17;;;;;;;4.80;0.70;;;;;;;;;;5064753;28;20063;-59
2022/06/13 09:12:43;;;;;;;5.20;0.50;;;;;;;;;;5063978;28;20049;-59
2022/06/13 09:15:13;;;;;;;4.22;0.45;;;;;;;;;;5064291;28;20036;-59
2022/06/13 09:17:44;;;;;;;3.40;0.65;;;;;;;;;;5063634;28;20055;-60
2022/06/13 09:20:17;;;;;;;4.07;0.90;;;;;;;;;;5064078;28;20383;-59
2022/06/13 09:22:44;;;;;;;5.88;0.65;;;;;;;;;;5064830;28;20090;-59
2022/06/13 09:25:14;;;;;;;3.28;0.50;;;;;;;;;;5064002;28;20052;-59
2022/06/13 09:27:47;;;;;;;3.38;0.80;;;;;;;;;;5062789;28;20043;-59
2022/06/13 09:30:15;;;;;;;11.80;0.70;;;;;;;;;;5064695;28;20422;-59
2022/06/13 09:32:47;;;;;;;7.78;0.80;;;;;;;;;;5063921;28;20071;-59
2022/06/13 09:35:13;;;;;;;5.25;0.40;;;;;;;;;;5064220;28;20041;-60
2022/06/13 09:37:52;;;;;;;7.45;0.70;;;;;;;;;;5063925;28;20095;-60
2022/06/13 09:40:21;;;;;;;6.82;0.70;;;;;;;;;;5063926;28;20049;-59
2022/06/13 09:42:55;;;;;;;1.35;0.40;;;;;;;;;;5063328;28;20051;-60
2022/06/13 09:45:25;;;;;;;2.47;0.50;;;;;;;;;;5062720;28;20045;-60
2022/06/13 09:47:51;;;;;;;4.60;0.57;;;;;;;;;;5063923;28;20475;-60
2022/06/13 09:50:21;;;;;;;4.45;0.68;;;;;;;;;;5063257;28;20094;-60
2022/06/13 09:53:03;;;;;;;6.70;0.80;;;;;;;;;;5063406;28;20127;-60
2022/06/13 09:55:34;;;;;;;4.78;0.60;;;;;;;;;;5064027;28;20120;-59
2022/06/13 09:58:18;;;;;;;11.60;0.82;;;;;;;;;;5063086;28;20513;-60
2022/06/13 10:00:52;;;;;;;3.50;0.45;;;;;;;;;;5064108;28;20502;-59
2022/06/13 10:03:32;;;;;;;11.60;0.60;;;;;;;;;;5063428;28;20954;-59
2022/06/13 10:06:04;;;;;;;5.32;0.75;;;;;;;;;;5063529;28;20080;-59
2022/06/13 10:08:35;;;;;;;3.83;0.65;;;;;;;;;;5063309;28;20515;-59
2022/06/13 10:11:03;;;;;;;4.93;0.90;;;;;;;;;;5063646;28;20434;-59
2022/06/13 10:13:35;;;;;;;7.17;0.70;;;;;;;;;;5062782;28;20052;-59
2022/06/13 10:16:12;;;;;;;5.15;0.60;;;;;;;;;;5063328;28;20086;-59
2022/06/13 10:18:45;;;;;;;5.88;0.90;;;;;;;;;;5063543;28;20051;-59
2022/06/13 10:21:20;;;;;;;5.10;0.60;;;;;;;;;;5063824;28;20040;-59
2022/06/13 10:23:58;;;;;;;5.72;0.70;;;;;;;;;;5064183;28;20058;-59
2022/06/13 10:26:25;;;;;;;2.58;0.85;;;;;;;;;;5062025;28;20397;-59
2022/06/13 10:28:57;;;;;;;5.22;0.80;;;;;;;;;;5061607;28;20472;-59
2022/06/13 10:31:30;;;;;;;6.43;0.88;;;;;;;;;;5063314;28;20522;-59
2022/06/13 10:34:08;;;;;;;5.43;1.00;;;;;;;;;;5063124;28;20135;-59
2022/06/13 10:36:42;;;;;;;5.00;0.80;;;;;;;;;;5063247;28;20106;-59
2022/06/13 10:39:11;;;;;;;12.85;1.10;;;;;;;;;;5063301;28;20052;-59
2022/06/13 10:41:39;;;;;;;6.55;0.70;;;;;;;;;;5063616;28;20150;-60
2022/06/13 10:44:08;;;;;;;9.73;0.90;;;;;;;;;;5062209;28;20049;-60
2022/06/13 10:46:34;;;;;;;9.05;1.15;;;;;;;;;;5062924;28;20068;-60
2022/06/13 10:49:07;;;;;;;4.88;0.60;;;;;;;;;;5061591;28;20110;-59
2022/06/13 10:51:35;;;;;;;7.40;0.80;;;;;;;;;;5062573;28;20408;-60
2022/06/13 10:54:10;;;;;;;7.00;0.80;;;;;;;;;;5063316;28;20044;-59
2022/06/13 10:56:40;;;;;;;3.83;0.80;;;;;;;;;;5050409;28;20045;-59
2022/06/13 10:59:06;;;;;;;7.20;0.80;;;;;;;;;;5061995;28;20052;-59
2022/06/13 11:01:32;;;;;;;9.43;1.35;;;;;;;;;;5051126;28;20040;-60
2022/06/13 11:04:01;;;;;;;5.65;1.00;;;;;;;;;;5058432;28;20479;-60
2022/06/13 11:06:33;;;;;;;6.38;0.90;;;;;;;;;;5064280;28;20148;-59
2022/06/13 11:09:00;;;;;;;6.15;1.00;;;;;;;;;;5064346;28;20118;-59
2022/06/13 11:11:31;;;;;;;6.88;1.35;;;;;;;;;;5062762;28;20047;-60
2022/06/13 11:13:58;;;;;;;6.90;1.10;;;;;;;;;;5056198;28;20044;-59
2022/06/13 11:24:50;;;;;;;2.33;0.45;;;;;;;;;;5065564;28;20127;-59
2022/06/13 11:27:41;;;;;;;8.73;0.65;;;;;;;;;;5066509;28;20078;-59
2022/06/13 11:30:19;;;;;;;5.88;0.50;;;;;;;;;;5066477;28;20047;-59
2022/06/13 11:32:57;;;;;;;5.13;0.80;;;;;;;;;;5065971;28;20044;-59
2022/06/13 11:35:42;;;;;;;4.78;0.75;;;;;;;;;;5058805;28;20040;-59
2022/06/13 11:38:14;;;;;;;6.15;0.77;;;;;;;;;;5053456;28;20052;-59
2022/06/13 11:40:41;;;;;;;4.18;0.75;;;;;;;;;;5066092;28;20036;-59
2022/06/13 11:43:18;;;;;;;4.38;0.88;;;;;;;;;;5065823;28;21192;-59
2022/06/13 11:45:44;;;;;;;4.57;0.90;;;;;;;;;;5066759;28;20162;-59
2022/06/13 11:48:14;;;;;;;5.07;0.80;;;;;;;;;;5065988;28;20120;-59
2022/06/13 11:50:41;;;;;;;6.88;0.98;;;;;;;;;;5065492;28;20037;-59
2022/06/13 11:55:58;;;;;;;7.85;1.35;;;;;;;;;;5065855;28;20670;-59
2022/06/13 11:58:26;;;;;;;6.13;0.87;;;;;;;;;;5065250;28;20040;-59
2022/06/13 12:00:53;;;;;;;2.95;0.70;;;;;;;;;;5065444;28;20040;-60
2022/06/13 12:03:23;;;;;;;7.20;1.27;;;;;;;;;;5065689;28;20040;-59
2022/06/13 12:05:51;;;;;;;13.98;1.90;;;;;;;;;;5065931;28;20044;-59
2022/06/13 12:08:20;;;;;;;6.82;1.15;;;;;;;;;;5064229;28;20052;-57
2022/06/13 12:10:55;;;;;;;9.18;1.20;;;;;;;;;;5066472;28;20482;-59
2022/06/13 12:13:22;;;;;;;7.97;1.15;;;;;;;;;;5064263;28;20126;-59
2022/06/13 12:16:03;;;;;;;7.53;1.30;;;;;;;;;;5064596;28;20040;-59
2022/06/13 12:18:41;;;;;;;5.88;0.90;;;;;;;;;;5065287;28;20084;-59
2022/06/13 12:21:07;;;;;;;;;;;;;;;;;;5065149;28;20072;-60
2022/06/13 12:23:33;;;;;;;5.28;0.80;;;;;;;;;;5064753;28;20356;-59
2022/06/13 12:26:05;;;;;;;13.00;1.23;;;;;;;;;;5063942;28;20049;-59
2022/06/13 12:28:39;;;;;;;4.45;0.80;;;;;;;;;;5064444;28;20044;-59
2022/06/13 12:31:20;;;;;;;7.88;1.05;;;;;;;;;;5065142;28;20090;-58
2022/06/13 12:33:46;;;;;;;5.38;0.65;;;;;;;;;;5065308;28;20040;-59
2022/06/13 12:36:20;;;;;;;14.75;1.50;;;;;;;;;;5065953;28;20127;-58
2022/06/13 12:38:54;;;;;;;8.63;2.35;;;;;;;;;;5060778;28;20062;-58
2022/06/13 12:41:42;;;;;;;10.40;1.15;;;;;;;;;;5057292;28;20119;-59
2022/06/13 12:44:23;;;;;;;13.37;1.40;;;;;;;;;;5060903;28;20086;-59
2022/06/13 12:47:02;;;;;;;5.55;1.08;;;;;;;;;;5061041;28;20305;-59
2022/06/13 12:49:28;;;;;;;22.13;1.83;;;;;;;;;;5061018;28;20059;-59
2022/06/13 12:51:58;;;;;;;14.20;4.05;;;;;;;;;;5062014;28;20045;-59
2022/06/13 12:54:38;;;;;;;8.68;1.55;;;;;;;;;;5061645;28;20105;-59
2022/06/13 12:57:04;;;;;;;10.45;1.63;;;;;;;;;;5061167;28;20048;-59
2022/06/13 12:59:37;;;;;;;23.08;1.58;;;;;;;;;;5061527;28;20167;-59
2022/06/13 13:02:13;;;;;;;6.47;1.13;;;;;;;;;;5060525;28;20040;-60
2022/06/13 13:04:51;;;;;;;6.90;1.05;;;;;;;;;;5059870;28;20094;-59
2022/06/13 13:07:24;;;;;;;2.92;0.88;;;;;;;;;;5060005;28;20046;-59
2022/06/13 13:10:08;;;;;;;8.18;0.63;;;;;;;;;;5059947;28;20048;-59
2022/06/13 13:12:35;;;;;;;5.63;0.63;;;;;;;;;;5058590;28;20193;-59
2022/06/13 13:15:14;;;;;;;4.57;0.57;;;;;;;;;;5060373;28;20040;-59
2022/06/13 13:17:40;;;;;;;6.15;0.68;;;;;;;;;;5060970;28;20064;-59
2022/06/13 13:20:11;;;;;;;12.32;1.27;;;;;;;;;;5060863;28;20048;-59
2022/06/13 13:22:38;;;;;;;5.65;0.90;;;;;;;;;;5061412;28;20502;-58
2022/06/13 13:25:14;;;;;;;6.72;0.98;;;;;;;;;;5059778;28;20608;-59
2022/06/13 13:27:47;;;;;;;11.35;1.23;;;;;;;;;;5056033;28;20040;-58
2022/06/13 13:30:19;;;;;;;5.38;0.65;;;;;;;;;;5061335;28;20509;-59
2022/06/13 13:33:04;;;;;;;3.33;0.70;;;;;;;;;;5058655;28;20093;-59
2022/06/13 13:35:44;;;;;;;6.85;1.00;;;;;;;;;;5060178;28;20052;-59
2022/06/13 13:38:17;;;;;;;6.00;0.90;;;;;;;;;;5060808;28;20072;-58
2022/06/13 13:40:46;;;;;;;5.78;0.70;;;;;;;;;;5061264;28;20079;-59
2022/06/13 13:43:17;;;;;;;6.85;1.02;;;;;;;;;;5060775;28;20047;-59
2022/06/13 13:45:55;;;;;;;6.10;1.10;;;;;;;;;;5060355;28;20044;-59
2022/06/13 13:48:36;;;;;;;8.80;1.10;;;;;;;;;;5059530;28;20062;-59
2022/06/13 13:51:12;;;;;;;8.57;1.10;;;;;;;;;;5060866;28;20040;-59
2022/06/13 13:53:42;;;;;;;7.22;1.52;;;;;;;;;;5060659;28;20237;-58
2022/06/13 13:56:14;;;;;;;5.00;0.70;;;;;;;;;;5060406;28;20083;-59
2022/06/13 13:58:42;;;;;;;9.05;1.10;;;;;;;;;;5059957;28;20123;-59
2022/06/13 14:01:13;;;;;;;11.15;1.42;;;;;;;;;;5061028;28;20040;-58
2022/06/13 14:03:53;;;;;;;6.05;0.90;;;;;;;;;;5060292;28;20118;-59
2022/06/13 14:06:22;;;;;;;6.72;0.70;;;;;;;;;;5060304;28;20047;-59
2022/06/13 14:08:49;;;;;;;6.38;1.23;;;;;;;;;;5060173;28;20612;-59
2022/06/13 14:11:15;;;;;;;6.32;1.02;;;;;;;;;;5060973;28;20036;-59
2022/06/13 14:13:44;;;;;;;8.50;1.05;;;;;;;;;;5058709;28;20467;-59
2022/06/13 14:16:10;;;;;;;;;;;;;;;;;;5059828;28;20040;-59
2022/06/13 14:18:49;;;;;;;6.63;0.90;;;;;;;;;;5055614;28;19932;-60
2022/06/13 14:21:18;;;;;;;6.40;1.02;;;;;;;;;;5060372;28;20078;-59
2022/06/13 14:23:46;;;;;;;8.02;1.30;;;;;;;;;;5063008;28;20048;-59
2022/06/13 14:26:19;;;;;;;8.90;1.00;;;;;;;;;;5063814;28;20611;-59
2022/06/13 14:28:47;;;;;;;8.70;1.30;;;;;;;;;;5062700;28;20072;-59
2022/06/13 14:31:13;;;;;;;3.83;0.73;;;;;;;;;;5061907;28;20044;-59
2022/06/13 14:36:47;;;;;;;7.53;0.70;;;;;;;;;;5062661;28;20033;-59
2022/06/13 14:39:17;;;;;;;4.63;0.70;;;;;;;;;;5063056;28;20049;-59
2022/06/13 14:41:43;;;;;;;3.90;0.70;;;;;;;;;;5064231;28;20090;-59
2022/06/13 14:44:16;;;;;;;4.47;1.20;;;;;;;;;;5066054;28;20066;-59
2022/06/13 14:46:57;;;;;;;3.42;0.75;;;;;;;;;;5066975;28;20086;-59
2022/06/13 14:49:27;;;;;;;7.88;0.60;;;;;;;;;;5066870;28;20039;-59
2022/06/13 14:52:09;;;;;;;6.18;0.82;;;;;;;;;;5067027;28;20059;-59
2022/06/13 14:54:37;;;;;;;4.60;0.63;;;;;;;;;;5066292;28;20041;-59
2022/06/13 14:57:24;;;;;;;5.05;0.80;;;;;;;;;;5066198;28;20079;-59
2022/06/13 15:00:02;;;;;;;6.50;0.82;;;;;;;;;;5065071;28;20861;-59
2022/06/13 15:02:29;;;;;;;4.95;0.85;;;;;;;;;;5066680;28;20051;-59
2022/06/13 15:05:02;;;;;;;8.10;1.15;;;;;;;;;;5064246;28;20513;-60
2022/06/13 15:07:35;;;;;;;6.10;0.80;;;;;;;;;;5066418;28;20391;-60
2022/06/13 15:10:14;;;;;;;1.98;0.52;;;;;;;;;;5066524;28;20476;-59
2022/06/13 15:12:43;;;;;;;3.25;0.60;;;;;;;;;;5062084;28;20044;-59
2022/06/13 15:15:17;;;;;;;4.90;0.90;;;;;;;;;;5066087;28;20051;-59
2022/06/13 15:17:43;;;;;;;7.22;0.90;;;;;;;;;;5054276;28;20045;-57
2022/06/13 15:20:13;;;;;;;7.55;0.80;;;;;;;;;;5052118;28;20050;-59
2022/06/13 15:22:41;;;;;;;5.18;0.80;;;;;;;;;;5051391;28;20141;-59